Time;durP1;ratioP1;P1;durP2;ratioP2;P2;SDS_P1;SDS_P2;PMS_P1;PMS_P2;Temp;Humidity;BMP_temperature;BMP_pressure;BME280_temperature;BME280_humidity;BME280_pressure;Samples;Min_cycle;Max_cycle;Signal;HPM_P1;HPM_P2
2022/10/10 00:00:03;;;;;;;49.53;26.10;;;;;;;;;;5111652;28;20503;-64
2022/10/10 00:02:30;;;;;;;48.80;26.83;;;;;;;;;;5110608;28;20442;-64
2022/10/10 00:04:57;;;;;;;46.70;27.50;;;;;;;;;;5091513;28;20446;-64
2022/10/10 00:07:24;;;;;;;45.80;26.30;;;;;;;;;;5109269;28;20522;-64
2022/10/10 00:09:50;;;;;;;45.30;24.00;;;;;;;;;;5087786;28;20455;-64
2022/10/10 00:12:17;;;;;;;37.67;23.63;;;;;;;;;;5107171;28;20442;-64
2022/10/10 00:14:44;;;;;;;43.03;24.50;;;;;;;;;;5108716;28;20458;-64
2022/10/10 00:17:10;;;;;;;44.93;24.30;;;;;;;;;;5109004;28;20468;-64
2022/10/10 00:19:37;;;;;;;39.20;23.27;;;;;;;;;;5109925;28;21026;-64
2022/10/10 00:22:04;;;;;;;40.43;24.63;;;;;;;;;;5100418;28;20462;-64
2022/10/10 00:24:30;;;;;;;40.73;22.97;;;;;;;;;;5101006;28;20438;-64
2022/10/10 00:26:58;;;;;;;41.83;22.80;;;;;;;;;;5110350;28;20411;-64
2022/10/10 00:29:24;;;;;;;37.50;23.23;;;;;;;;;;5093046;28;20636;-64
2022/10/10 00:31:51;;;;;;;40.63;22.73;;;;;;;;;;5109664;28;20453;-64
2022/10/10 00:34:18;;;;;;;40.07;22.47;;;;;;;;;;5109406;28;20449;-64
2022/10/10 00:36:44;;;;;;;35.80;20.80;;;;;;;;;;5108892;28;20478;-64
2022/10/10 00:39:11;;;;;;;36.63;22.07;;;;;;;;;;5108157;28;20997;-64
2022/10/10 00:41:38;;;;;;;39.27;22.17;;;;;;;;;;5109219;28;20529;-64
2022/10/10 00:44:08;;;;;;;35.93;20.33;;;;;;;;;;5101555;28;20965;-64
2022/10/10 00:46:35;;;;;;;34.67;19.70;;;;;;;;;;5101101;28;21010;-64
2022/10/10 00:49:02;;;;;;;33.87;18.93;;;;;;;;;;5109054;28;20856;-64
2022/10/10 00:51:29;;;;;;;40.90;20.53;;;;;;;;;;5108987;28;20454;-64
2022/10/10 00:53:57;;;;;;;35.87;20.43;;;;;;;;;;5090969;28;20520;-65
2022/10/10 00:56:25;;;;;;;37.30;20.07;;;;;;;;;;5089930;28;20799;-64
2022/10/10 00:58:52;;;;;;;36.43;19.53;;;;;;;;;;5108326;28;20441;-64
2022/10/10 01:01:19;;;;;;;35.03;21.30;;;;;;;;;;5091063;28;20446;-64
2022/10/10 01:03:46;;;;;;;35.17;19.63;;;;;;;;;;5108692;28;20457;-64
2022/10/10 01:06:12;;;;;;;37.93;21.37;;;;;;;;;;5105877;28;20443;-64
2022/10/10 01:08:39;;;;;;;38.30;21.17;;;;;;;;;;5105746;28;20470;-64
2022/10/10 01:11:12;;;;;;;34.63;21.63;;;;;;;;;;5109727;28;20945;-64
2022/10/10 01:13:54;;;;;;;37.67;20.20;;;;;;;;;;5109174;28;20446;-64
2022/10/10 01:16:39;;;;;;;36.43;18.97;;;;;;;;;;5089947;28;20491;-64
2022/10/10 01:19:06;;;;;;;38.93;20.97;;;;;;;;;;5094720;28;20472;-64
2022/10/10 01:21:56;;;;;;;36.67;20.07;;;;;;;;;;5109761;28;20429;-64
2022/10/10 01:24:23;;;;;;;32.47;19.40;;;;;;;;;;5108891;28;20482;-64
2022/10/10 01:26:59;;;;;;;31.83;19.20;;;;;;;;;;5109952;28;20476;-64
2022/10/10 01:29:34;;;;;;;36.07;19.93;;;;;;;;;;5089785;28;20532;-64
2022/10/10 01:32:20;;;;;;;36.90;20.30;;;;;;;;;;5090868;28;20817;-64
2022/10/10 01:34:58;;;;;;;40.33;21.17;;;;;;;;;;5107020;28;20454;-64
2022/10/10 01:37:25;;;;;;;38.63;22.20;;;;;;;;;;5098517;28;20458;-64
2022/10/10 01:39:55;;;;;;;37.47;22.23;;;;;;;;;;5108659;28;20446;-64
2022/10/10 01:42:23;;;;;;;39.77;22.87;;;;;;;;;;5108650;28;20915;-64
2022/10/10 01:44:52;;;;;;;41.17;21.17;;;;;;;;;;5089588;28;20438;-64
2022/10/10 01:47:20;;;;;;;44.07;21.43;;;;;;;;;;5106401;28;20534;-64
2022/10/10 01:49:48;;;;;;;34.03;19.83;;;;;;;;;;5108113;28;20997;-64
2022/10/10 01:52:33;;;;;;;35.37;20.67;;;;;;;;;;5090874;28;20449;-64
2022/10/10 01:55:18;;;;;;;37.00;20.43;;;;;;;;;;5108474;28;20484;-64
2022/10/10 01:57:51;;;;;;;32.43;19.60;;;;;;;;;;5104801;28;20447;-64
2022/10/10 02:00:18;;;;;;;35.80;20.13;;;;;;;;;;5090224;28;20457;-64
2022/10/10 02:02:59;;;;;;;38.63;19.83;;;;;;;;;;5108770;28;20504;-64
2022/10/10 02:05:25;;;;;;;33.47;19.23;;;;;;;;;;5090860;28;21324;-64
2022/10/10 02:07:54;;;;;;;36.70;20.23;;;;;;;;;;5096802;28;20455;-64
2022/10/10 02:10:22;;;;;;;32.00;18.50;;;;;;;;;;5088100;28;20454;-64
2022/10/10 02:12:49;;;;;;;32.53;18.40;;;;;;;;;;5109323;28;20421;-64
2022/10/10 02:15:17;;;;;;;31.13;16.83;;;;;;;;;;5108007;28;20503;-64
2022/10/10 02:17:44;;;;;;;31.93;18.13;;;;;;;;;;5090391;28;20805;-64
2022/10/10 02:20:11;;;;;;;34.57;18.20;;;;;;;;;;5088502;28;20450;-64
2022/10/10 02:22:38;;;;;;;29.43;17.40;;;;;;;;;;5090018;28;20511;-64
2022/10/10 02:25:05;;;;;;;36.50;18.47;;;;;;;;;;5107713;28;20449;-64
2022/10/10 02:27:48;;;;;;;33.97;17.70;;;;;;;;;;5108241;28;20422;-64
2022/10/10 02:30:15;;;;;;;32.80;19.00;;;;;;;;;;5108088;28;20548;-64
2022/10/10 02:32:43;;;;;;;32.63;17.53;;;;;;;;;;5091310;28;20433;-64
2022/10/10 02:35:14;;;;;;;32.53;17.57;;;;;;;;;;5089987;28;20517;-64
2022/10/10 02:37:41;;;;;;;29.23;16.50;;;;;;;;;;5089033;28;20978;-64
2022/10/10 02:40:08;;;;;;;32.80;18.27;;;;;;;;;;5108826;28;20806;-65
2022/10/10 02:42:34;;;;;;;37.53;18.60;;;;;;;;;;5091579;28;20439;-64
2022/10/10 02:45:02;;;;;;;31.47;17.77;;;;;;;;;;5110462;28;20493;-64
2022/10/10 02:47:28;;;;;;;32.10;18.23;;;;;;;;;;5109162;28;20803;-63
2022/10/10 02:49:55;;;;;;;34.40;17.97;;;;;;;;;;5091319;28;20495;-66
2022/10/10 02:52:22;;;;;;;32.13;18.70;;;;;;;;;;5110386;28;20453;-64
2022/10/10 02:54:49;;;;;;;38.43;19.70;;;;;;;;;;5109825;28;20446;-65
2022/10/10 02:57:15;;;;;;;33.37;18.43;;;;;;;;;;5112607;28;20419;-64
2022/10/10 02:59:42;;;;;;;33.63;17.67;;;;;;;;;;5111923;28;20455;-65
2022/10/10 03:02:09;;;;;;;32.97;17.23;;;;;;;;;;5094992;28;20443;-66
2022/10/10 03:04:35;;;;;;;33.23;16.67;;;;;;;;;;5089669;28;20456;-66
2022/10/10 03:07:02;;;;;;;31.53;17.03;;;;;;;;;;5090397;28;21363;-65
2022/10/10 03:09:29;;;;;;;30.17;16.80;;;;;;;;;;5090086;27;20542;-63
2022/10/10 03:11:56;;;;;;;31.73;17.87;;;;;;;;;;5088490;28;20447;-64
2022/10/10 03:14:23;;;;;;;33.77;17.87;;;;;;;;;;5093929;28;20949;-65
2022/10/10 03:16:50;;;;;;;30.77;15.97;;;;;;;;;;5096396;28;20535;-66
2022/10/10 03:19:16;;;;;;;27.90;16.23;;;;;;;;;;5088298;28;21133;-63
2022/10/10 03:21:43;;;;;;;23.17;15.30;;;;;;;;;;5088011;28;20447;-66
2022/10/10 03:24:10;;;;;;;26.73;15.77;;;;;;;;;;5082266;28;21185;-64
2022/10/10 03:26:37;;;;;;;28.13;16.00;;;;;;;;;;5097945;28;20440;-65
2022/10/10 03:29:04;;;;;;;31.00;16.87;;;;;;;;;;5088758;28;20833;-65
2022/10/10 03:31:30;;;;;;;29.53;15.23;;;;;;;;;;5094219;28;21099;-66
2022/10/10 03:33:57;;;;;;;28.27;15.50;;;;;;;;;;5088469;28;20443;-63
2022/10/10 03:36:24;;;;;;;31.57;15.53;;;;;;;;;;5094513;28;20451;-64
2022/10/10 03:38:50;;;;;;;27.87;16.37;;;;;;;;;;5104398;28;20964;-64
2022/10/10 03:41:17;;;;;;;31.07;16.83;;;;;;;;;;5102232;28;20919;-64
2022/10/10 03:43:44;;;;;;;45.57;23.83;;;;;;;;;;5102329;28;20448;-65
2022/10/10 03:46:11;;;;;;;42.53;22.77;;;;;;;;;;5102875;28;20450;-65
2022/10/10 03:48:42;;;;;;;31.70;17.40;;;;;;;;;;5101626;28;20466;-66
2022/10/10 03:51:08;;;;;;;27.47;16.77;;;;;;;;;;5099958;28;20450;-64
2022/10/10 03:53:36;;;;;;;30.70;16.83;;;;;;;;;;5101849;28;20447;-64
2022/10/10 03:56:02;;;;;;;35.73;16.47;;;;;;;;;;5102192;28;21166;-65
2022/10/10 03:58:29;;;;;;;40.17;19.33;;;;;;;;;;5083639;28;20614;-65
2022/10/10 04:00:56;;;;;;;41.43;20.33;;;;;;;;;;5099206;28;20443;-64
2022/10/10 04:03:23;;;;;;;38.63;19.27;;;;;;;;;;5098359;28;21293;-64
2022/10/10 04:05:50;;;;;;;31.23;19.03;;;;;;;;;;5102942;28;20580;-63
2022/10/10 04:08:17;;;;;;;40.17;20.63;;;;;;;;;;5096645;28;20474;-65
2022/10/10 04:10:46;;;;;;;27.07;14.33;;;;;;;;;;5097894;28;20847;-64
2022/10/10 04:13:13;;;;;;;30.27;15.87;;;;;;;;;;5101954;28;20484;-64
2022/10/10 04:15:40;;;;;;;28.13;15.97;;;;;;;;;;5103749;28;20435;-63
2022/10/10 04:18:06;;;;;;;29.93;13.77;;;;;;;;;;5102952;28;20438;-63
2022/10/10 04:20:33;;;;;;;27.87;13.37;;;;;;;;;;5103636;28;20434;-64
2022/10/10 04:23:00;;;;;;;25.33;15.30;;;;;;;;;;5084338;28;20852;-64
2022/10/10 04:25:26;;;;;;;26.40;14.57;;;;;;;;;;5099882;28;20495;-64
2022/10/10 04:27:53;;;;;;;26.17;13.67;;;;;;;;;;5098034;28;20863;-65
2022/10/10 04:30:27;;;;;;;25.00;13.47;;;;;;;;;;5105493;28;21025;-64
2022/10/10 04:32:54;;;;;;;28.70;13.97;;;;;;;;;;5087059;28;20493;-64
2022/10/10 04:35:20;;;;;;;24.73;14.07;;;;;;;;;;5091198;28;20470;-64
2022/10/10 04:37:47;;;;;;;23.30;13.73;;;;;;;;;;5101735;28;21382;-64
2022/10/10 04:40:14;;;;;;;26.47;13.50;;;;;;;;;;5091520;28;20459;-64
2022/10/10 04:42:40;;;;;;;22.67;12.60;;;;;;;;;;5100538;28;20493;-64
2022/10/10 04:45:07;;;;;;;24.63;13.00;;;;;;;;;;5091791;28;20467;-64
2022/10/10 04:47:34;;;;;;;24.37;13.90;;;;;;;;;;5094340;28;20484;-64
2022/10/10 04:50:01;;;;;;;23.27;12.83;;;;;;;;;;5102644;27;20983;-64
2022/10/10 04:52:28;;;;;;;21.13;12.20;;;;;;;;;;5096731;28;20794;-64
2022/10/10 04:54:58;;;;;;;21.33;12.47;;;;;;;;;;5108459;28;20423;-64
2022/10/10 04:57:25;;;;;;;20.97;12.27;;;;;;;;;;5094272;28;20427;-64
2022/10/10 04:59:52;;;;;;;19.73;11.33;;;;;;;;;;5109472;28;20933;-64
2022/10/10 05:02:18;;;;;;;27.00;14.33;;;;;;;;;;5109992;28;20427;-65
2022/10/10 05:04:45;;;;;;;121.70;39.80;;;;;;;;;;5106087;28;20454;-65
2022/10/10 05:07:12;;;;;;;50.57;22.47;;;;;;;;;;5109610;28;20843;-65
2022/10/10 05:09:38;;;;;;;35.73;16.80;;;;;;;;;;5110295;28;20462;-65
2022/10/10 05:12:05;;;;;;;37.07;18.53;;;;;;;;;;5110544;28;21363;-65
2022/10/10 05:14:32;;;;;;;29.20;16.00;;;;;;;;;;5107778;28;20454;-65
2022/10/10 05:16:59;;;;;;;27.33;14.87;;;;;;;;;;5108428;28;20537;-65
2022/10/10 05:19:26;;;;;;;46.63;22.13;;;;;;;;;;5108029;28;20443;-65
2022/10/10 05:21:53;;;;;;;31.13;16.07;;;;;;;;;;5108872;28;20977;-64
2022/10/10 05:24:20;;;;;;;38.00;16.53;;;;;;;;;;5108833;28;20465;-65
2022/10/10 05:26:46;;;;;;;30.60;15.93;;;;;;;;;;5109084;28;20503;-65
2022/10/10 05:29:13;;;;;;;31.90;16.37;;;;;;;;;;5105829;28;20482;-65
2022/10/10 05:31:40;;;;;;;28.73;13.33;;;;;;;;;;5107255;28;20451;-64
2022/10/10 05:34:08;;;;;;;24.30;13.50;;;;;;;;;;5099242;28;20458;-64
2022/10/10 05:36:35;;;;;;;30.00;13.10;;;;;;;;;;5074779;28;20481;-65
2022/10/10 05:39:02;;;;;;;26.17;13.13;;;;;;;;;;5110570;28;20922;-65
2022/10/10 05:41:28;;;;;;;22.50;13.40;;;;;;;;;;5109982;28;20427;-64
2022/10/10 05:43:55;;;;;;;28.17;13.40;;;;;;;;;;5109924;28;20479;-65
2022/10/10 05:46:23;;;;;;;23.73;13.40;;;;;;;;;;5110192;28;20436;-64
2022/10/10 05:48:50;;;;;;;31.57;15.97;;;;;;;;;;5109374;28;20462;-64
2022/10/10 05:51:16;;;;;;;28.60;14.70;;;;;;;;;;5108768;28;21292;-65
2022/10/10 05:53:43;;;;;;;27.47;14.57;;;;;;;;;;5110200;28;20431;-64
2022/10/10 05:56:10;;;;;;;25.87;14.03;;;;;;;;;;5109600;28;20430;-65
2022/10/10 05:58:37;;;;;;;28.57;15.23;;;;;;;;;;5109664;28;20429;-65
2022/10/10 06:01:04;;;;;;;28.93;14.20;;;;;;;;;;5109779;28;20429;-65
2022/10/10 06:03:31;;;;;;;28.53;14.20;;;;;;;;;;5109841;28;20427;-65
2022/10/10 06:05:58;;;;;;;24.37;14.03;;;;;;;;;;5109913;28;20427;-64
2022/10/10 06:08:24;;;;;;;26.17;14.43;;;;;;;;;;5099051;28;20807;-64
2022/10/10 06:10:51;;;;;;;25.73;13.97;;;;;;;;;;5089003;28;20565;-64
2022/10/10 06:13:18;;;;;;;25.13;13.37;;;;;;;;;;5089424;28;20477;-65
2022/10/10 06:15:50;;;;;;;24.97;13.33;;;;;;;;;;5092763;28;20925;-64
2022/10/10 06:18:17;;;;;;;26.03;12.50;;;;;;;;;;5093446;28;20434;-64
2022/10/10 06:20:44;;;;;;;26.30;13.80;;;;;;;;;;5075501;28;20441;-65
2022/10/10 06:23:10;;;;;;;29.20;15.37;;;;;;;;;;5092438;28;20439;-64
2022/10/10 06:25:37;;;;;;;26.20;13.23;;;;;;;;;;5092985;28;20468;-65
2022/10/10 06:28:07;;;;;;;26.50;12.70;;;;;;;;;;5092407;28;20470;-64
2022/10/10 06:30:38;;;;;;;22.70;12.03;;;;;;;;;;5092768;28;20467;-65
2022/10/10 06:33:04;;;;;;;19.97;11.83;;;;;;;;;;5093048;28;20439;-65
2022/10/10 06:35:31;;;;;;;19.90;12.93;;;;;;;;;;5092759;28;20419;-65
2022/10/10 06:37:58;;;;;;;20.53;12.67;;;;;;;;;;5107753;28;20462;-65
2022/10/10 06:40:24;;;;;;;23.23;13.10;;;;;;;;;;5113097;28;20423;-65
2022/10/10 06:42:51;;;;;;;22.73;13.17;;;;;;;;;;5113016;28;20528;-65
2022/10/10 06:45:18;;;;;;;23.00;12.70;;;;;;;;;;5113355;28;20449;-65
2022/10/10 06:47:45;;;;;;;24.07;13.53;;;;;;;;;;5113082;28;20453;-65
2022/10/10 06:50:12;;;;;;;22.33;13.53;;;;;;;;;;5112811;28;20208;-65
2022/10/10 06:52:39;;;;;;;23.93;13.13;;;;;;;;;;5112950;28;20193;-65
2022/10/10 06:55:07;;;;;;;17.03;11.07;;;;;;;;;;5112529;28;20196;-66
2022/10/10 06:57:34;;;;;;;18.73;10.10;;;;;;;;;;5107574;28;20245;-66
2022/10/10 07:00:00;;;;;;;15.27;7.93;;;;;;;;;;5112574;28;20188;-66
2022/10/10 07:02:27;;;;;;;14.33;8.03;;;;;;;;;;5113046;28;20280;-66
2022/10/10 07:04:54;;;;;;;12.73;6.90;;;;;;;;;;5114170;28;20184;-66
2022/10/10 07:07:20;;;;;;;10.07;6.70;;;;;;;;;;5113860;28;20189;-66
2022/10/10 07:09:47;;;;;;;12.07;6.50;;;;;;;;;;5112538;28;20200;-66
2022/10/10 07:12:14;;;;;;;9.57;5.80;;;;;;;;;;5112644;28;20201;-66
2022/10/10 07:14:40;;;;;;;8.30;5.60;;;;;;;;;;5112558;28;20181;-66
2022/10/10 07:17:07;;;;;;;10.10;5.80;;;;;;;;;;5112276;28;20193;-66
2022/10/10 07:19:35;;;;;;;11.20;5.20;;;;;;;;;;5111783;28;20667;-66
2022/10/10 07:22:02;;;;;;;9.30;5.10;;;;;;;;;;5091630;28;20268;-66
2022/10/10 07:24:29;;;;;;;7.73;5.00;;;;;;;;;;5091568;28;20660;-66
2022/10/10 07:26:56;;;;;;;8.80;5.03;;;;;;;;;;5092286;28;20189;-66
2022/10/10 07:29:30;;;;;;;8.00;5.00;;;;;;;;;;5091828;28;20227;-66
2022/10/10 07:31:57;;;;;;;7.23;4.70;;;;;;;;;;5091833;28;20192;-66
2022/10/10 07:34:24;;;;;;;7.40;4.57;;;;;;;;;;5091695;28;20668;-66
2022/10/10 07:36:51;;;;;;;6.97;4.60;;;;;;;;;;5097045;28;20216;-66
2022/10/10 07:39:21;;;;;;;7.60;4.57;;;;;;;;;;5110955;28;20193;-66
2022/10/10 07:41:48;;;;;;;6.17;4.33;;;;;;;;;;5112216;28;20225;-66
2022/10/10 07:44:15;;;;;;;8.03;4.87;;;;;;;;;;5112079;28;20193;-65
2022/10/10 07:46:42;;;;;;;6.77;4.20;;;;;;;;;;5111794;28;20188;-66
2022/10/10 07:49:08;;;;;;;8.70;4.70;;;;;;;;;;5111573;28;20176;-66
2022/10/10 07:51:35;;;;;;;8.97;4.63;;;;;;;;;;5111713;28;20188;-66
2022/10/10 07:54:02;;;;;;;6.93;4.83;;;;;;;;;;5111931;28;20189;-66
2022/10/10 07:56:29;;;;;;;6.90;4.47;;;;;;;;;;5111481;28;20250;-65
2022/10/10 07:58:55;;;;;;;9.47;5.00;;;;;;;;;;5111022;28;20207;-66
2022/10/10 08:01:22;;;;;;;7.87;4.70;;;;;;;;;;5111251;28;20181;-66
2022/10/10 08:03:49;;;;;;;9.37;4.60;;;;;;;;;;5111408;28;20185;-65
2022/10/10 08:06:16;;;;;;;7.97;4.70;;;;;;;;;;5111368;28;20309;-66
2022/10/10 08:08:43;;;;;;;7.83;5.17;;;;;;;;;;5106891;28;20186;-66
2022/10/10 08:11:17;;;;;;;9.73;5.03;;;;;;;;;;5091123;28;20270;-66
2022/10/10 08:13:43;;;;;;;7.73;4.77;;;;;;;;;;5090791;28;20201;-65
2022/10/10 08:16:10;;;;;;;10.60;4.90;;;;;;;;;;5091043;28;20196;-66
2022/10/10 08:18:37;;;;;;;8.30;4.77;;;;;;;;;;5090600;28;20188;-66
2022/10/10 08:21:05;;;;;;;8.37;4.80;;;;;;;;;;5090857;28;20216;-66
2022/10/10 08:23:31;;;;;;;9.00;4.73;;;;;;;;;;5091346;28;20188;-66
2022/10/10 08:26:01;;;;;;;7.97;4.33;;;;;;;;;;5092155;28;20221;-66
2022/10/10 08:28:28;;;;;;;7.90;4.60;;;;;;;;;;5090700;28;20189;-66
2022/10/10 08:30:55;;;;;;;8.00;4.50;;;;;;;;;;5056001;28;20879;-65
2022/10/10 08:33:24;;;;;;;8.77;4.43;;;;;;;;;;5072566;28;20263;-66
2022/10/10 08:35:51;;;;;;;6.27;4.40;;;;;;;;;;5090905;28;20230;-65
2022/10/10 08:38:18;;;;;;;7.23;4.23;;;;;;;;;;5107400;28;20224;-65
2022/10/10 08:40:46;;;;;;;5.97;4.30;;;;;;;;;;5111044;28;20535;-65
2022/10/10 08:43:25;;;;;;;6.83;4.10;;;;;;;;;;5078479;28;20185;-66
2022/10/10 08:45:52;;;;;;;8.20;4.30;;;;;;;;;;5072765;28;20189;-66
2022/10/10 08:48:20;;;;;;;8.03;4.10;;;;;;;;;;5089159;28;20185;-66
2022/10/10 08:50:48;;;;;;;7.93;4.57;;;;;;;;;;5090632;28;20220;-65
2022/10/10 08:53:23;;;;;;;8.40;4.80;;;;;;;;;;5072500;28;20557;-66
2022/10/10 08:55:50;;;;;;;9.37;5.40;;;;;;;;;;5089020;28;20552;-66
2022/10/10 08:58:29;;;;;;;8.50;4.53;;;;;;;;;;5090239;28;20696;-65
2022/10/10 09:01:01;;;;;;;7.67;4.57;;;;;;;;;;5072366;28;20559;-65
2022/10/10 09:03:34;;;;;;;5.50;3.70;;;;;;;;;;5072276;28;20224;-66
2022/10/10 09:06:19;;;;;;;6.87;3.70;;;;;;;;;;5072420;28;20193;-65
2022/10/10 09:08:55;;;;;;;6.40;3.50;;;;;;;;;;5090068;28;20185;-66
2022/10/10 09:11:26;;;;;;;7.57;4.07;;;;;;;;;;5089595;28;20217;-66
2022/10/10 09:14:03;;;;;;;6.67;3.77;;;;;;;;;;5090226;28;20280;-65
2022/10/10 09:16:33;;;;;;;5.13;3.33;;;;;;;;;;5072035;28;20693;-65
2022/10/10 09:19:07;;;;;;;6.53;3.50;;;;;;;;;;5089907;28;20308;-66
2022/10/10 09:21:35;;;;;;;8.07;3.77;;;;;;;;;;5072250;28;20517;-66
2022/10/10 09:24:07;;;;;;;5.57;3.10;;;;;;;;;;5090047;28;20190;-65
2022/10/10 09:26:35;;;;;;;8.40;3.50;;;;;;;;;;5090147;28;20207;-65
2022/10/10 09:29:20;;;;;;;5.50;3.20;;;;;;;;;;5071701;28;20657;-65
2022/10/10 09:31:49;;;;;;;4.13;2.90;;;;;;;;;;5089405;28;20221;-66
2022/10/10 09:34:17;;;;;;;5.97;3.10;;;;;;;;;;5089542;28;20191;-65
2022/10/10 09:36:44;;;;;;;5.60;3.30;;;;;;;;;;5093996;28;20255;-66
2022/10/10 09:39:22;;;;;;;6.40;2.80;;;;;;;;;;5092309;28;20177;-65
2022/10/10 09:42:15;;;;;;;5.70;2.63;;;;;;;;;;5092439;28;20241;-64
2022/10/10 09:44:42;;;;;;;6.70;2.97;;;;;;;;;;5107319;28;20236;-65
2022/10/10 09:47:12;;;;;;;5.27;3.00;;;;;;;;;;5109890;28;20189;-66
2022/10/10 09:49:38;;;;;;;4.57;3.27;;;;;;;;;;5110901;28;20189;-66
2022/10/10 09:52:37;;;;;;;4.20;2.43;;;;;;;;;;5114238;28;20184;-65
2022/10/10 09:55:05;;;;;;;5.27;2.90;;;;;;;;;;5090749;28;20208;-65
2022/10/10 09:57:33;;;;;;;5.07;3.27;;;;;;;;;;5114163;28;20199;-65
2022/10/10 10:00:01;;;;;;;4.50;2.83;;;;;;;;;;5109030;28;20215;-63
2022/10/10 10:02:37;;;;;;;5.07;2.80;;;;;;;;;;5077478;28;20204;-65
2022/10/10 10:05:16;;;;;;;4.90;2.60;;;;;;;;;;5093213;28;20182;-65
2022/10/10 10:07:46;;;;;;;6.07;2.73;;;;;;;;;;5075324;28;20598;-66
2022/10/10 10:10:18;;;;;;;5.23;2.73;;;;;;;;;;5075800;28;20631;-65
2022/10/10 10:12:45;;;;;;;4.43;2.73;;;;;;;;;;5093483;28;20201;-64
2022/10/10 10:15:15;;;;;;;5.03;2.80;;;;;;;;;;5093314;28;20185;-65
2022/10/10 10:17:42;;;;;;;6.27;2.77;;;;;;;;;;5093368;28;20197;-65
2022/10/10 10:20:38;;;;;;;5.50;2.77;;;;;;;;;;5092678;28;20185;-65
2022/10/10 10:23:07;;;;;;;4.50;2.77;;;;;;;;;;5080212;28;20591;-65
2022/10/10 10:25:34;;;;;;;7.10;3.30;;;;;;;;;;5091426;28;20214;-65
2022/10/10 10:28:10;;;;;;;8.97;3.80;;;;;;;;;;5113179;28;20185;-65
2022/10/10 10:30:38;;;;;;;9.07;5.27;;;;;;;;;;5113134;28;20204;-65
2022/10/10 10:33:07;;;;;;;10.83;6.93;;;;;;;;;;5113508;28;20594;-65
2022/10/10 10:35:45;;;;;;;16.40;8.57;;;;;;;;;;5113053;28;20216;-65
2022/10/10 10:38:14;;;;;;;13.00;7.90;;;;;;;;;;5112646;28;20216;-65
2022/10/10 10:40:41;;;;;;;6.50;4.43;;;;;;;;;;5092723;28;20193;-65
2022/10/10 10:43:13;;;;;;;5.07;3.17;;;;;;;;;;5092101;28;20201;-65
2022/10/10 10:45:57;;;;;;;8.00;3.70;;;;;;;;;;5094643;28;20184;-65
2022/10/10 10:48:28;;;;;;;5.43;3.20;;;;;;;;;;5112910;28;20227;-65
2022/10/10 10:50:56;;;;;;;6.53;3.57;;;;;;;;;;5112751;28;20679;-64
2022/10/10 10:53:35;;;;;;;6.47;3.90;;;;;;;;;;5112518;28;20697;-65
2022/10/10 10:56:08;;;;;;;7.17;3.50;;;;;;;;;;5112480;28;20271;-65
2022/10/10 10:58:53;;;;;;;6.13;3.43;;;;;;;;;;5094853;28;20230;-64
2022/10/10 11:01:47;;;;;;;6.97;3.37;;;;;;;;;;5099318;28;20653;-64
2022/10/10 11:04:39;;;;;;;5.73;3.00;;;;;;;;;;5075789;28;20280;-64
2022/10/10 11:07:26;;;;;;;6.60;3.50;;;;;;;;;;5091975;28;20251;-64
2022/10/10 11:09:55;;;;;;;8.80;3.57;;;;;;;;;;5074449;28;20225;-65
2022/10/10 11:12:28;;;;;;;5.77;3.40;;;;;;;;;;5091931;28;20716;-64
2022/10/10 11:15:04;;;;;;;7.00;4.33;;;;;;;;;;5074235;28;20185;-65
2022/10/10 11:17:32;;;;;;;7.40;4.37;;;;;;;;;;5091866;28;20197;-65
2022/10/10 11:20:05;;;;;;;5.17;3.40;;;;;;;;;;5091696;28;20189;-64
2022/10/10 11:22:37;;;;;;;7.27;4.30;;;;;;;;;;5092147;28;20192;-64
2022/10/10 11:25:12;;;;;;;8.17;4.10;;;;;;;;;;5073782;28;20231;-64
2022/10/10 11:27:43;;;;;;;7.10;3.43;;;;;;;;;;5091867;28;20197;-64
2022/10/10 11:30:14;;;;;;;9.83;4.53;;;;;;;;;;5073887;28;20217;-64
2022/10/10 11:32:44;;;;;;;5.93;3.63;;;;;;;;;;5074123;28;20190;-64
2022/10/10 11:35:25;;;;;;;6.97;3.80;;;;;;;;;;5091310;28;20608;-64
2022/10/10 11:37:53;;;;;;;8.10;3.87;;;;;;;;;;5087427;28;20248;-64
2022/10/10 11:40:25;;;;;;;7.03;3.70;;;;;;;;;;5093644;28;20193;-65
2022/10/10 11:42:54;;;;;;;8.17;4.23;;;;;;;;;;5094008;28;20195;-64
2022/10/10 11:45:25;;;;;;;5.70;3.60;;;;;;;;;;5093862;28;20189;-64
2022/10/10 11:47:57;;;;;;;6.17;3.67;;;;;;;;;;5105376;28;20280;-65
2022/10/10 11:50:27;;;;;;;5.87;3.53;;;;;;;;;;5091091;28;20189;-65
2022/10/10 11:52:59;;;;;;;9.00;4.33;;;;;;;;;;5073828;28;20269;-65
2022/10/10 11:55:46;;;;;;;3.97;3.07;;;;;;;;;;5091120;28;20243;-66
2022/10/10 11:58:31;;;;;;;6.20;4.00;;;;;;;;;;5073452;28;20182;-60
2022/10/10 12:00:59;;;;;;;5.10;3.63;;;;;;;;;;5090970;28;20186;-66
2022/10/10 12:03:26;;;;;;;4.27;3.30;;;;;;;;;;5081989;28;20204;-66
2022/10/10 12:06:01;;;;;;;6.53;3.80;;;;;;;;;;5093376;28;20205;-66
2022/10/10 12:08:28;;;;;;;5.83;3.10;;;;;;;;;;5093643;28;20554;-67
2022/10/10 12:11:15;;;;;;;5.73;3.27;;;;;;;;;;5111017;28;20204;-67
2022/10/10 12:13:43;;;;;;;7.00;3.20;;;;;;;;;;5111282;28;20209;-67
2022/10/10 12:16:11;;;;;;;5.73;3.30;;;;;;;;;;5092887;28;20180;-68
2022/10/10 12:18:39;;;;;;;5.33;3.37;;;;;;;;;;5093701;28;20189;-68
2022/10/10 12:21:07;;;;;;;4.57;3.13;;;;;;;;;;5093347;28;20796;-68
2022/10/10 12:23:34;;;;;;;5.60;2.97;;;;;;;;;;5111550;28;20241;-68
2022/10/10 12:26:01;;;;;;;6.67;3.40;;;;;;;;;;5075972;28;20669;-68
2022/10/10 12:28:31;;;;;;;4.50;3.13;;;;;;;;;;5110374;28;20242;-68
2022/10/10 12:31:04;;;;;;;4.20;2.50;;;;;;;;;;5092688;28;20599;-68
2022/10/10 12:33:48;;;;;;;4.43;2.70;;;;;;;;;;5109538;28;20204;-69
2022/10/10 12:36:17;;;;;;;6.67;2.60;;;;;;;;;;5110832;28;20185;-69
2022/10/10 12:39:00;;;;;;;6.03;3.10;;;;;;;;;;5111357;28;20664;-68
2022/10/10 12:41:42;;;;;;;4.07;2.60;;;;;;;;;;5110785;28;20195;-68
2022/10/10 12:44:45;;;;;;;6.50;3.00;;;;;;;;;;5105674;28;20706;-68
2022/10/10 12:47:14;;;;;;;5.67;3.53;;;;;;;;;;5089263;28;20745;-68
2022/10/10 12:50:00;;;;;;;6.57;2.90;;;;;;;;;;5090355;28;20176;-68
2022/10/10 12:52:34;;;;;;;5.13;2.87;;;;;;;;;;5090264;28;20692;-67
2022/10/10 12:55:02;;;;;;;8.87;3.13;;;;;;;;;;5090004;28;20723;-72
2022/10/10 12:57:34;;;;;;;7.90;3.43;;;;;;;;;;5072865;28;20201;-72
2022/10/10 13:00:05;;;;;;;9.87;5.10;;;;;;;;;;5072330;28;20186;-72
2022/10/10 13:02:32;;;;;;;8.33;3.87;;;;;;;;;;5072402;28;20192;-73
2022/10/10 13:04:59;;;;;;;10.17;5.90;;;;;;;;;;5088010;28;20196;-73
2022/10/10 13:07:26;;;;;;;6.97;4.00;;;;;;;;;;5106364;28;20585;-73
2022/10/10 13:09:54;;;;;;;4.67;3.30;;;;;;;;;;5088037;28;20193;-72
2022/10/10 13:12:28;;;;;;;7.30;4.50;;;;;;;;;;5081964;28;20211;-73
2022/10/10 13:14:55;;;;;;;7.97;4.43;;;;;;;;;;5097810;28;20214;-72
2022/10/10 13:17:28;;;;;;;8.10;3.77;;;;;;;;;;5091928;28;20182;-73
2022/10/10 13:19:56;;;;;;;10.40;6.20;;;;;;;;;;5091941;28;20185;-72
2022/10/10 13:22:23;;;;;;;10.87;6.07;;;;;;;;;;5086929;28;20188;-72
2022/10/10 13:24:50;;;;;;;7.80;4.90;;;;;;;;;;5089119;28;20248;-73
2022/10/10 13:27:16;;;;;;;8.10;5.20;;;;;;;;;;5085466;28;20197;-72
2022/10/10 13:29:43;;;;;;;8.67;5.13;;;;;;;;;;5094555;28;20186;-73
2022/10/10 13:32:11;;;;;;;6.90;4.53;;;;;;;;;;5083627;28;20257;-73
2022/10/10 13:34:39;;;;;;;5.33;3.50;;;;;;;;;;5091506;28;20200;-73
2022/10/10 13:37:06;;;;;;;6.73;3.10;;;;;;;;;;5098277;28;20670;-74
2022/10/10 13:39:34;;;;;;;6.57;3.57;;;;;;;;;;5111797;28;20548;-73
2022/10/10 13:42:01;;;;;;;6.23;3.40;;;;;;;;;;5079848;28;20230;-72
2022/10/10 13:44:47;;;;;;;6.20;3.40;;;;;;;;;;5093747;28;20189;-73
2022/10/10 13:47:46;;;;;;;7.70;4.30;;;;;;;;;;5096448;28;20173;-73
2022/10/10 13:50:25;;;;;;;9.57;3.73;;;;;;;;;;5094078;28;20186;-72
2022/10/10 13:53:13;;;;;;;6.57;3.40;;;;;;;;;;5084761;28;20205;-72
2022/10/10 13:55:40;;;;;;;7.07;4.00;;;;;;;;;;5111911;28;20212;-72
2022/10/10 13:58:25;;;;;;;7.73;4.13;;;;;;;;;;5111162;28;20180;-72
2022/10/10 14:01:01;;;;;;;7.77;3.87;;;;;;;;;;5093491;28;20555;-72
2022/10/10 14:03:29;;;;;;;6.33;3.90;;;;;;;;;;5109617;28;20551;-72
2022/10/10 14:05:55;;;;;;;5.97;3.33;;;;;;;;;;5111231;28;20197;-72
2022/10/10 14:08:23;;;;;;;7.47;3.33;;;;;;;;;;5103514;28;20276;-72
2022/10/10 14:10:54;;;;;;;5.57;4.00;;;;;;;;;;5098335;28;20246;-72
2022/10/10 14:13:21;;;;;;;5.87;3.23;;;;;;;;;;5109510;28;20189;-73
2022/10/10 14:15:48;;;;;;;9.97;3.73;;;;;;;;;;5076266;28;20267;-72
2022/10/10 14:18:16;;;;;;;7.57;3.70;;;;;;;;;;5091679;28;20205;-71
2022/10/10 14:20:44;;;;;;;6.10;3.50;;;;;;;;;;5089461;28;20204;-72
2022/10/10 14:23:11;;;;;;;6.07;3.77;;;;;;;;;;5093501;28;20192;-72
2022/10/10 14:25:38;;;;;;;7.03;3.90;;;;;;;;;;5094147;28;20220;-72
2022/10/10 14:28:05;;;;;;;5.73;3.60;;;;;;;;;;5094043;28;20212;-72
2022/10/10 14:30:32;;;;;;;9.87;4.00;;;;;;;;;;5094041;28;20206;-72
2022/10/10 14:32:59;;;;;;;6.03;3.50;;;;;;;;;;5093082;28;20228;-71
2022/10/10 14:35:26;;;;;;;5.70;3.40;;;;;;;;;;5102772;28;20190;-72
2022/10/10 14:37:53;;;;;;;10.47;3.70;;;;;;;;;;5093692;28;20259;-71
2022/10/10 14:40:37;;;;;;;9.70;4.17;;;;;;;;;;5094902;28;20227;-72
2022/10/10 14:43:04;;;;;;;7.60;4.17;;;;;;;;;;5094175;28;20174;-72
2022/10/10 14:45:30;;;;;;;6.87;3.60;;;;;;;;;;5094338;28;20205;-72